sensor_id;sensor_type;location;lat;lon;timestamp;temperature;humidity
31661;DHT22;18267;52.234;7.444;2022-10-16T00:01:19;13.60;99.90
31661;DHT22;18267;52.234;7.444;2022-10-16T00:03:46;13.60;99.90
31661;DHT22;18267;52.234;7.444;2022-10-16T00:06:12;13.60;99.90
31661;DHT22;18267;52.234;7.444;2022-10-16T00:08:39;13.60;99.90
31661;DHT22;18267;52.234;7.444;2022-10-16T00:11:14;13.60;99.90
31661;DHT22;18267;52.234;7.444;2022-10-16T00:13:41;13.60;99.90
31661;DHT22;18267;52.234;7.444;2022-10-16T00:16:08;13.50;99.90
31661;DHT22;18267;52.234;7.444;2022-10-16T00:18:34;13.50;99.90
31661;DHT22;18267;52.234;7.444;2022-10-16T00:21:05;13.50;99.90
31661;DHT22;18267;52.234;7.444;2022-10-16T00:23:31;13.40;99.90
31661;DHT22;18267;52.234;7.444;2022-10-16T00:26:00;13.40;99.90
31661;DHT22;18267;52.234;7.444;2022-10-16T00:28:26;13.40;99.90
31661;DHT22;18267;52.234;7.444;2022-10-16T00:30:52;13.40;99.90
31661;DHT22;18267;52.234;7.444;2022-10-16T00:33:18;13.40;99.90
31661;DHT22;18267;52.234;7.444;2022-10-16T00:35:43;13.30;99.90
31661;DHT22;18267;52.234;7.444;2022-10-16T00:38:09;13.30;99.90
31661;DHT22;18267;52.234;7.444;2022-10-16T00:40:35;13.30;99.90
31661;DHT22;18267;52.234;7.444;2022-10-16T00:43:00;13.20;99.90
31661;DHT22;18267;52.234;7.444;2022-10-16T00:45:26;13.00;99.90
31661;DHT22;18267;52.234;7.444;2022-10-16T00:47:53;13.00;99.90
31661;DHT22;18267;52.234;7.444;2022-10-16T00:50:26;13.00;99.90
31661;DHT22;18267;52.234;7.444;2022-10-16T00:52:53;13.00;99.90
31661;DHT22;18267;52.234;7.444;2022-10-16T00:55:19;13.00;99.90
31661;DHT22;18267;52.234;7.444;2022-10-16T00:57:46;13.00;99.90
31661;DHT22;18267;52.234;7.444;2022-10-16T01:00:15;13.10;99.90
31661;DHT22;18267;52.234;7.444;2022-10-16T01:02:41;13.00;99.90
31661;DHT22;18267;52.234;7.444;2022-10-16T01:05:07;13.00;99.90
31661;DHT22;18267;52.234;7.444;2022-10-16T01:07:56;13.00;99.90
31661;DHT22;18267;52.234;7.444;2022-10-16T01:10:31;13.00;99.90
31661;DHT22;18267;52.234;7.444;2022-10-16T01:13:06;12.90;99.90
31661;DHT22;18267;52.234;7.444;2022-10-16T01:15:42;12.90;99.90
31661;DHT22;18267;52.234;7.444;2022-10-16T01:18:18;12.80;99.90
31661;DHT22;18267;52.234;7.444;2022-10-16T01:21:08;12.80;99.90
31661;DHT22;18267;52.234;7.444;2022-10-16T01:26:44;12.80;99.90
31661;DHT22;18267;52.234;7.444;2022-10-16T01:29:21;12.80;99.90
31661;DHT22;18267;52.234;7.444;2022-10-16T01:31:52;12.80;99.90
31661;DHT22;18267;52.234;7.444;2022-10-16T01:34:35;12.80;99.90
31661;DHT22;18267;52.234;7.444;2022-10-16T01:37:09;12.80;99.90
31661;DHT22;18267;52.234;7.444;2022-10-16T01:39:39;12.80;99.90
31661;DHT22;18267;52.234;7.444;2022-10-16T01:42:17;12.80;99.90
31661;DHT22;18267;52.234;7.444;2022-10-16T01:44:45;12.90;99.90
31661;DHT22;18267;52.234;7.444;2022-10-16T01:47:13;13.00;99.90
31661;DHT22;18267;52.234;7.444;2022-10-16T01:49:39;12.90;99.90
31661;DHT22;18267;52.234;7.444;2022-10-16T01:52:09;12.90;99.90
31661;DHT22;18267;52.234;7.444;2022-10-16T01:54:37;12.90;99.90
31661;DHT22;18267;52.234;7.444;2022-10-16T01:57:04;12.80;99.90
31661;DHT22;18267;52.234;7.444;2022-10-16T01:59:32;12.80;99.90
31661;DHT22;18267;52.234;7.444;2022-10-16T02:02:00;12.80;99.90
31661;DHT22;18267;52.234;7.444;2022-10-16T02:04:33;12.80;99.90
31661;DHT22;18267;52.234;7.444;2022-10-16T02:06:59;12.80;99.90
31661;DHT22;18267;52.234;7.444;2022-10-16T02:09:25;12.70;99.90
31661;DHT22;18267;52.234;7.444;2022-10-16T02:11:54;12.80;99.90
31661;DHT22;18267;52.234;7.444;2022-10-16T02:14:21;12.80;99.90
31661;DHT22;18267;52.234;7.444;2022-10-16T02:16:47;12.80;99.90
31661;DHT22;18267;52.234;7.444;2022-10-16T02:19:15;12.80;99.90
31661;DHT22;18267;52.234;7.444;2022-10-16T02:21:56;12.90;99.90
31661;DHT22;18267;52.234;7.444;2022-10-16T02:24:32;12.80;99.90
31661;DHT22;18267;52.234;7.444;2022-10-16T02:29:30;12.80;99.90
31661;DHT22;18267;52.234;7.444;2022-10-16T02:32:01;12.70;99.90
31661;DHT22;18267;52.234;7.444;2022-10-16T02:34:28;12.70;99.90
31661;DHT22;18267;52.234;7.444;2022-10-16T02:36:56;12.70;99.90
31661;DHT22;18267;52.234;7.444;2022-10-16T02:39:23;12.90;99.90
31661;DHT22;18267;52.234;7.444;2022-10-16T02:41:49;12.80;99.90
31661;DHT22;18267;52.234;7.444;2022-10-16T02:44:15;12.80;99.90
31661;DHT22;18267;52.234;7.444;2022-10-16T02:46:40;12.80;99.90
31661;DHT22;18267;52.234;7.444;2022-10-16T02:49:06;12.90;99.90
31661;DHT22;18267;52.234;7.444;2022-10-16T02:51:31;12.90;99.90
31661;DHT22;18267;52.234;7.444;2022-10-16T02:53:57;12.90;99.90
31661;DHT22;18267;52.234;7.444;2022-10-16T02:56:23;12.90;99.90
31661;DHT22;18267;52.234;7.444;2022-10-16T02:58:49;12.90;99.90
31661;DHT22;18267;52.234;7.444;2022-10-16T03:01:14;12.90;99.90
31661;DHT22;18267;52.234;7.444;2022-10-16T03:03:42;12.90;99.90
31661;DHT22;18267;52.234;7.444;2022-10-16T03:06:08;13.00;99.90
31661;DHT22;18267;52.234;7.444;2022-10-16T03:08:34;13.00;99.90
31661;DHT22;18267;52.234;7.444;2022-10-16T03:10:59;13.00;99.90
31661;DHT22;18267;52.234;7.444;2022-10-16T03:13:25;13.00;99.90
31661;DHT22;18267;52.234;7.444;2022-10-16T03:15:50;12.90;99.90
31661;DHT22;18267;52.234;7.444;2022-10-16T03:18:16;12.90;99.90
31661;DHT22;18267;52.234;7.444;2022-10-16T03:20:43;12.90;99.90
31661;DHT22;18267;52.234;7.444;2022-10-16T03:23:08;13.00;99.90
31661;DHT22;18267;52.234;7.444;2022-10-16T03:25:34;13.00;99.90
31661;DHT22;18267;52.234;7.444;2022-10-16T03:27:59;13.10;99.90
31661;DHT22;18267;52.234;7.444;2022-10-16T03:30:25;13.00;99.90
31661;DHT22;18267;52.234;7.444;2022-10-16T03:32:51;13.10;99.90
31661;DHT22;18267;52.234;7.444;2022-10-16T03:35:20;13.10;99.90
31661;DHT22;18267;52.234;7.444;2022-10-16T03:37:45;13.10;99.90
31661;DHT22;18267;52.234;7.444;2022-10-16T03:40:11;13.00;99.90
31661;DHT22;18267;52.234;7.444;2022-10-16T03:42:36;13.00;99.90
31661;DHT22;18267;52.234;7.444;2022-10-16T03:45:03;13.00;99.90
31661;DHT22;18267;52.234;7.444;2022-10-16T03:47:28;13.00;99.90
31661;DHT22;18267;52.234;7.444;2022-10-16T03:49:54;13.10;99.90
31661;DHT22;18267;52.234;7.444;2022-10-16T03:52:19;13.20;99.90
31661;DHT22;18267;52.234;7.444;2022-10-16T03:54:45;13.20;99.90
31661;DHT22;18267;52.234;7.444;2022-10-16T03:57:10;13.10;99.90
31661;DHT22;18267;52.234;7.444;2022-10-16T03:59:36;13.20;99.90
31661;DHT22;18267;52.234;7.444;2022-10-16T04:02:01;13.10;99.90
31661;DHT22;18267;52.234;7.444;2022-10-16T04:04:27;13.10;99.90
31661;DHT22;18267;52.234;7.444;2022-10-16T04:06:53;13.10;99.90
31661;DHT22;18267;52.234;7.444;2022-10-16T04:09:18;13.10;99.90
31661;DHT22;18267;52.234;7.444;2022-10-16T04:11:44;13.10;99.90
31661;DHT22;18267;52.234;7.444;2022-10-16T04:14:09;13.10;99.90
31661;DHT22;18267;52.234;7.444;2022-10-16T04:16:35;13.10;99.90
31661;DHT22;18267;52.234;7.444;2022-10-16T04:19:01;13.10;99.90
31661;DHT22;18267;52.234;7.444;2022-10-16T04:21:26;13.10;99.90
31661;DHT22;18267;52.234;7.444;2022-10-16T04:23:52;13.10;99.90
31661;DHT22;18267;52.234;7.444;2022-10-16T04:26:17;13.10;99.90
31661;DHT22;18267;52.234;7.444;2022-10-16T04:28:43;13.10;99.90
31661;DHT22;18267;52.234;7.444;2022-10-16T04:31:08;13.00;99.90
31661;DHT22;18267;52.234;7.444;2022-10-16T04:33:34;13.10;99.90
31661;DHT22;18267;52.234;7.444;2022-10-16T04:36:01;13.10;99.90
31661;DHT22;18267;52.234;7.444;2022-10-16T04:38:27;13.10;99.90
31661;DHT22;18267;52.234;7.444;2022-10-16T04:40:53;13.10;99.90
31661;DHT22;18267;52.234;7.444;2022-10-16T04:43:20;13.10;99.90
31661;DHT22;18267;52.234;7.444;2022-10-16T04:45:46;13.00;99.90
31661;DHT22;18267;52.234;7.444;2022-10-16T04:48:11;13.00;99.90
31661;DHT22;18267;52.234;7.444;2022-10-16T04:50:37;13.00;99.90
31661;DHT22;18267;52.234;7.444;2022-10-16T04:53:03;13.00;99.90
31661;DHT22;18267;52.234;7.444;2022-10-16T04:55:29;12.90;99.90
31661;DHT22;18267;52.234;7.444;2022-10-16T04:57:54;12.90;99.90
31661;DHT22;18267;52.234;7.444;2022-10-16T05:00:20;12.90;99.90
31661;DHT22;18267;52.234;7.444;2022-10-16T05:02:46;12.90;99.90
31661;DHT22;18267;52.234;7.444;2022-10-16T05:05:11;12.80;99.90
31661;DHT22;18267;52.234;7.444;2022-10-16T05:07:37;12.80;99.90
31661;DHT22;18267;52.234;7.444;2022-10-16T05:10:03;12.80;99.90
31661;DHT22;18267;52.234;7.444;2022-10-16T05:12:28;12.90;99.90
31661;DHT22;18267;52.234;7.444;2022-10-16T05:14:54;12.80;99.90
31661;DHT22;18267;52.234;7.444;2022-10-16T05:17:24;12.90;99.90
31661;DHT22;18267;52.234;7.444;2022-10-16T05:19:50;12.80;99.90
31661;DHT22;18267;52.234;7.444;2022-10-16T05:22:16;12.80;99.90
31661;DHT22;18267;52.234;7.444;2022-10-16T05:24:41;12.80;99.90
31661;DHT22;18267;52.234;7.444;2022-10-16T05:27:07;12.80;99.90
31661;DHT22;18267;52.234;7.444;2022-10-16T05:29:32;12.80;99.90
31661;DHT22;18267;52.234;7.444;2022-10-16T05:31:58;12.80;99.90
31661;DHT22;18267;52.234;7.444;2022-10-16T05:34:23;12.90;99.90
31661;DHT22;18267;52.234;7.444;2022-10-16T05:36:49;12.90;99.90
31661;DHT22;18267;52.234;7.444;2022-10-16T05:39:15;12.80;99.90
31661;DHT22;18267;52.234;7.444;2022-10-16T05:41:41;12.80;99.90
31661;DHT22;18267;52.234;7.444;2022-10-16T05:44:06;12.80;99.90
31661;DHT22;18267;52.234;7.444;2022-10-16T05:46:32;12.80;99.90
31661;DHT22;18267;52.234;7.444;2022-10-16T05:48:58;12.80;99.90
31661;DHT22;18267;52.234;7.444;2022-10-16T05:51:24;12.80;99.90
31661;DHT22;18267;52.234;7.444;2022-10-16T05:53:50;12.80;99.90
31661;DHT22;18267;52.234;7.444;2022-10-16T05:56:17;12.80;99.90
31661;DHT22;18267;52.234;7.444;2022-10-16T05:58:42;12.90;99.90
31661;DHT22;18267;52.234;7.444;2022-10-16T06:01:12;12.90;99.90
31661;DHT22;18267;52.234;7.444;2022-10-16T06:03:38;12.80;99.90
31661;DHT22;18267;52.234;7.444;2022-10-16T06:06:11;12.80;99.90
31661;DHT22;18267;52.234;7.444;2022-10-16T06:08:37;12.70;99.90
31661;DHT22;18267;52.234;7.444;2022-10-16T06:11:05;12.70;99.90
31661;DHT22;18267;52.234;7.444;2022-10-16T06:13:31;12.70;99.90
31661;DHT22;18267;52.234;7.444;2022-10-16T06:15:58;12.80;99.90
31661;DHT22;18267;52.234;7.444;2022-10-16T06:18:25;12.80;99.90
31661;DHT22;18267;52.234;7.444;2022-10-16T06:20:51;12.70;99.90
31661;DHT22;18267;52.234;7.444;2022-10-16T06:23:16;12.80;99.90
31661;DHT22;18267;52.234;7.444;2022-10-16T06:25:42;12.80;99.90
31661;DHT22;18267;52.234;7.444;2022-10-16T06:28:07;12.90;99.90
31661;DHT22;18267;52.234;7.444;2022-10-16T06:30:33;12.90;99.90
31661;DHT22;18267;52.234;7.444;2022-10-16T06:32:58;12.80;99.90
31661;DHT22;18267;52.234;7.444;2022-10-16T06:35:24;12.90;99.90
31661;DHT22;18267;52.234;7.444;2022-10-16T06:37:49;12.90;99.90
31661;DHT22;18267;52.234;7.444;2022-10-16T06:40:16;12.90;99.90
31661;DHT22;18267;52.234;7.444;2022-10-16T06:42:41;12.80;99.90
31661;DHT22;18267;52.234;7.444;2022-10-16T06:45:07;12.90;99.90
31661;DHT22;18267;52.234;7.444;2022-10-16T06:47:33;12.80;99.90
31661;DHT22;18267;52.234;7.444;2022-10-16T06:49:58;12.90;99.90
31661;DHT22;18267;52.234;7.444;2022-10-16T06:52:24;12.80;99.90
31661;DHT22;18267;52.234;7.444;2022-10-16T06:54:50;12.90;99.90
31661;DHT22;18267;52.234;7.444;2022-10-16T06:57:15;12.90;99.90
31661;DHT22;18267;52.234;7.444;2022-10-16T06:59:41;12.90;99.90
31661;DHT22;18267;52.234;7.444;2022-10-16T07:02:08;13.00;99.90
31661;DHT22;18267;52.234;7.444;2022-10-16T07:04:35;13.00;99.90
31661;DHT22;18267;52.234;7.444;2022-10-16T07:07:01;13.10;99.90
31661;DHT22;18267;52.234;7.444;2022-10-16T07:09:26;13.10;99.90
31661;DHT22;18267;52.234;7.444;2022-10-16T07:11:52;13.10;99.90
31661;DHT22;18267;52.234;7.444;2022-10-16T07:14:19;13.20;99.90
31661;DHT22;18267;52.234;7.444;2022-10-16T07:16:46;13.20;99.90
31661;DHT22;18267;52.234;7.444;2022-10-16T07:19:12;13.20;99.90
31661;DHT22;18267;52.234;7.444;2022-10-16T07:21:40;13.20;99.90
31661;DHT22;18267;52.234;7.444;2022-10-16T07:24:10;13.20;99.90
31661;DHT22;18267;52.234;7.444;2022-10-16T07:26:37;13.30;99.90
31661;DHT22;18267;52.234;7.444;2022-10-16T07:29:14;13.40;99.90
31661;DHT22;18267;52.234;7.444;2022-10-16T07:31:41;13.40;99.90
31661;DHT22;18267;52.234;7.444;2022-10-16T07:34:07;13.50;99.90
31661;DHT22;18267;52.234;7.444;2022-10-16T07:36:32;13.50;99.90
31661;DHT22;18267;52.234;7.444;2022-10-16T07:38:58;13.60;99.90
31661;DHT22;18267;52.234;7.444;2022-10-16T07:41:23;13.60;99.90
31661;DHT22;18267;52.234;7.444;2022-10-16T07:43:51;13.70;99.90
31661;DHT22;18267;52.234;7.444;2022-10-16T07:46:17;13.80;99.90
31661;DHT22;18267;52.234;7.444;2022-10-16T07:48:44;13.80;99.90
31661;DHT22;18267;52.234;7.444;2022-10-16T07:51:13;13.80;99.90
31661;DHT22;18267;52.234;7.444;2022-10-16T07:53:39;13.80;99.90
31661;DHT22;18267;52.234;7.444;2022-10-16T07:56:06;13.90;99.90
31661;DHT22;18267;52.234;7.444;2022-10-16T07:58:33;13.90;99.90
31661;DHT22;18267;52.234;7.444;2022-10-16T08:01:03;13.90;99.90
31661;DHT22;18267;52.234;7.444;2022-10-16T08:03:29;14.00;99.90
31661;DHT22;18267;52.234;7.444;2022-10-16T08:05:57;14.00;99.90
31661;DHT22;18267;52.234;7.444;2022-10-16T08:08:22;14.10;99.90
31661;DHT22;18267;52.234;7.444;2022-10-16T08:10:48;14.10;99.90
31661;DHT22;18267;52.234;7.444;2022-10-16T08:13:14;14.20;99.90
31661;DHT22;18267;52.234;7.444;2022-10-16T08:15:43;14.30;99.90
31661;DHT22;18267;52.234;7.444;2022-10-16T08:18:11;14.40;99.90
31661;DHT22;18267;52.234;7.444;2022-10-16T08:20:37;14.50;99.90
31661;DHT22;18267;52.234;7.444;2022-10-16T08:23:04;14.60;99.90
31661;DHT22;18267;52.234;7.444;2022-10-16T08:25:29;14.60;99.90
31661;DHT22;18267;52.234;7.444;2022-10-16T08:27:55;14.70;99.90
31661;DHT22;18267;52.234;7.444;2022-10-16T08:30:22;14.70;99.90
31661;DHT22;18267;52.234;7.444;2022-10-16T08:32:48;14.70;99.90
31661;DHT22;18267;52.234;7.444;2022-10-16T08:35:14;14.80;99.90
31661;DHT22;18267;52.234;7.444;2022-10-16T08:37:40;14.70;99.90
31661;DHT22;18267;52.234;7.444;2022-10-16T08:40:13;14.70;99.90
31661;DHT22;18267;52.234;7.444;2022-10-16T08:50:32;14.70;99.90
31661;DHT22;18267;52.234;7.444;2022-10-16T08:53:03;14.70;99.90
31661;DHT22;18267;52.234;7.444;2022-10-16T08:55:45;14.80;99.90
31661;DHT22;18267;52.234;7.444;2022-10-16T08:58:17;14.80;99.90
31661;DHT22;18267;52.234;7.444;2022-10-16T09:00:49;14.80;99.90
31661;DHT22;18267;52.234;7.444;2022-10-16T09:09:16;15.00;99.90
31661;DHT22;18267;52.234;7.444;2022-10-16T09:12:04;15.10;99.90
31661;DHT22;18267;52.234;7.444;2022-10-16T09:14:38;15.20;99.90
31661;DHT22;18267;52.234;7.444;2022-10-16T09:23:32;15.40;99.90
31661;DHT22;18267;52.234;7.444;2022-10-16T09:25:59;15.60;99.90
31661;DHT22;18267;52.234;7.444;2022-10-16T09:28:25;15.60;99.90
31661;DHT22;18267;52.234;7.444;2022-10-16T09:30:51;15.60;99.90
31661;DHT22;18267;52.234;7.444;2022-10-16T09:33:19;15.70;99.90
31661;DHT22;18267;52.234;7.444;2022-10-16T09:35:53;15.80;99.90
31661;DHT22;18267;52.234;7.444;2022-10-16T09:38:34;15.80;99.90
31661;DHT22;18267;52.234;7.444;2022-10-16T09:41:03;15.90;99.90
31661;DHT22;18267;52.234;7.444;2022-10-16T09:43:47;16.10;99.90
31661;DHT22;18267;52.234;7.444;2022-10-16T09:46:36;16.20;99.90
31661;DHT22;18267;52.234;7.444;2022-10-16T09:49:21;16.20;99.90
31661;DHT22;18267;52.234;7.444;2022-10-16T09:51:47;16.20;99.90
31661;DHT22;18267;52.234;7.444;2022-10-16T09:54:14;16.10;99.90
31661;DHT22;18267;52.234;7.444;2022-10-16T09:56:40;16.10;99.90
31661;DHT22;18267;52.234;7.444;2022-10-16T10:04:07;16.10;99.90
31661;DHT22;18267;52.234;7.444;2022-10-16T10:06:35;16.00;99.90
31661;DHT22;18267;52.234;7.444;2022-10-16T10:09:04;16.10;99.90
31661;DHT22;18267;52.234;7.444;2022-10-16T10:14:09;16.30;99.90
31661;DHT22;18267;52.234;7.444;2022-10-16T10:16:39;16.50;99.90
31661;DHT22;18267;52.234;7.444;2022-10-16T10:19:08;16.50;99.90
31661;DHT22;18267;52.234;7.444;2022-10-16T10:21:38;16.60;99.90
31661;DHT22;18267;52.234;7.444;2022-10-16T10:24:04;16.60;99.90
31661;DHT22;18267;52.234;7.444;2022-10-16T10:26:32;16.60;99.90
31661;DHT22;18267;52.234;7.444;2022-10-16T10:29:14;16.60;99.90
31661;DHT22;18267;52.234;7.444;2022-10-16T10:32:00;16.60;99.90
31661;DHT22;18267;52.234;7.444;2022-10-16T10:34:47;16.70;99.90
31661;DHT22;18267;52.234;7.444;2022-10-16T10:40:23;16.60;99.90
31661;DHT22;18267;52.234;7.444;2022-10-16T10:45:46;16.40;99.90
31661;DHT22;18267;52.234;7.444;2022-10-16T10:48:27;16.30;99.90
31661;DHT22;18267;52.234;7.444;2022-10-16T10:51:01;16.20;99.90
31661;DHT22;18267;52.234;7.444;2022-10-16T10:53:44;16.10;99.90
31661;DHT22;18267;52.234;7.444;2022-10-16T10:59:33;16.10;99.90
31661;DHT22;18267;52.234;7.444;2022-10-16T11:02:22;16.20;99.90
31661;DHT22;18267;52.234;7.444;2022-10-16T11:08:00;16.40;99.90
31661;DHT22;18267;52.234;7.444;2022-10-16T11:10:29;16.50;99.90
31661;DHT22;18267;52.234;7.444;2022-10-16T11:13:05;16.60;99.90
31661;DHT22;18267;52.234;7.444;2022-10-16T11:15:37;16.70;99.90
31661;DHT22;18267;52.234;7.444;2022-10-16T11:18:19;16.70;99.90
31661;DHT22;18267;52.234;7.444;2022-10-16T11:20:57;16.60;99.90
31661;DHT22;18267;52.234;7.444;2022-10-16T11:23:29;16.40;99.90
31661;DHT22;18267;52.234;7.444;2022-10-16T11:25:59;16.40;99.90
31661;DHT22;18267;52.234;7.444;2022-10-16T11:28:32;16.30;99.90
31661;DHT22;18267;52.234;7.444;2022-10-16T11:31:14;16.20;99.90
31661;DHT22;18267;52.234;7.444;2022-10-16T11:34:00;16.20;99.90
31661;DHT22;18267;52.234;7.444;2022-10-16T11:36:38;16.20;99.90
31661;DHT22;18267;52.234;7.444;2022-10-16T11:39:17;16.20;99.90
31661;DHT22;18267;52.234;7.444;2022-10-16T11:47:33;16.10;99.90
31661;DHT22;18267;52.234;7.444;2022-10-16T11:50:25;16.20;99.90
31661;DHT22;18267;52.234;7.444;2022-10-16T11:55:40;16.30;99.90
31661;DHT22;18267;52.234;7.444;2022-10-16T12:03:40;16.30;99.90
31661;DHT22;18267;52.234;7.444;2022-10-16T12:09:28;16.30;99.90
31661;DHT22;18267;52.234;7.444;2022-10-16T12:11:54;16.40;99.90
31661;DHT22;18267;52.234;7.444;2022-10-16T12:14:33;16.40;99.90
31661;DHT22;18267;52.234;7.444;2022-10-16T12:17:03;16.30;99.90
31661;DHT22;18267;52.234;7.444;2022-10-16T12:19:32;16.30;99.90
31661;DHT22;18267;52.234;7.444;2022-10-16T12:22:00;16.40;99.90
31661;DHT22;18267;52.234;7.444;2022-10-16T12:24:39;16.40;99.90
31661;DHT22;18267;52.234;7.444;2022-10-16T12:30:04;16.40;99.90
31661;DHT22;18267;52.234;7.444;2022-10-16T12:32:38;16.40;99.90
31661;DHT22;18267;52.234;7.444;2022-10-16T12:35:16;16.40;99.90
31661;DHT22;18267;52.234;7.444;2022-10-16T12:37:42;16.30;99.90
31661;DHT22;18267;52.234;7.444;2022-10-16T12:40:28;16.30;99.90
31661;DHT22;18267;52.234;7.444;2022-10-16T12:42:54;16.40;99.90
31661;DHT22;18267;52.234;7.444;2022-10-16T12:45:24;16.30;99.90
31661;DHT22;18267;52.234;7.444;2022-10-16T12:47:52;16.30;99.90
31661;DHT22;18267;52.234;7.444;2022-10-16T12:50:34;16.30;99.90
31661;DHT22;18267;52.234;7.444;2022-10-16T12:53:02;16.40;99.90
31661;DHT22;18267;52.234;7.444;2022-10-16T12:55:35;16.50;99.90
31661;DHT22;18267;52.234;7.444;2022-10-16T12:58:27;16.50;99.90
31661;DHT22;18267;52.234;7.444;2022-10-16T13:00:59;16.50;99.90
31661;DHT22;18267;52.234;7.444;2022-10-16T13:06:13;16.60;99.90
31661;DHT22;18267;52.234;7.444;2022-10-16T13:11:45;16.50;99.90
31661;DHT22;18267;52.234;7.444;2022-10-16T13:17:06;16.60;99.90
31661;DHT22;18267;52.234;7.444;2022-10-16T13:20:02;16.60;99.90
31661;DHT22;18267;52.234;7.444;2022-10-16T13:30:23;16.60;99.90
31661;DHT22;18267;52.234;7.444;2022-10-16T13:33:37;16.60;99.90
31661;DHT22;18267;52.234;7.444;2022-10-16T13:35:54;16.60;99.90
31661;DHT22;18267;52.234;7.444;2022-10-16T13:38:25;16.60;99.90
31661;DHT22;18267;52.234;7.444;2022-10-16T13:40:57;16.60;99.90
31661;DHT22;18267;52.234;7.444;2022-10-16T13:46:17;16.70;99.90
31661;DHT22;18267;52.234;7.444;2022-10-16T13:48:43;16.70;99.90
31661;DHT22;18267;52.234;7.444;2022-10-16T13:51:16;16.80;99.90
31661;DHT22;18267;52.234;7.444;2022-10-16T13:53:43;16.70;99.90
31661;DHT22;18267;52.234;7.444;2022-10-16T13:56:14;16.70;99.90
31661;DHT22;18267;52.234;7.444;2022-10-16T13:58:40;16.60;99.90
31661;DHT22;18267;52.234;7.444;2022-10-16T14:01:42;16.60;99.90
31661;DHT22;18267;52.234;7.444;2022-10-16T14:04:11;16.60;99.90
31661;DHT22;18267;52.234;7.444;2022-10-16T14:06:42;16.50;99.90
31661;DHT22;18267;52.234;7.444;2022-10-16T14:09:14;16.50;99.90
31661;DHT22;18267;52.234;7.444;2022-10-16T14:11:49;16.50;99.90
31661;DHT22;18267;52.234;7.444;2022-10-16T14:14:17;16.50;99.90
31661;DHT22;18267;52.234;7.444;2022-10-16T14:16:43;16.50;99.90
31661;DHT22;18267;52.234;7.444;2022-10-16T14:19:27;16.60;99.90
31661;DHT22;18267;52.234;7.444;2022-10-16T14:21:53;16.60;99.90
31661;DHT22;18267;52.234;7.444;2022-10-16T14:24:26;16.60;99.90
31661;DHT22;18267;52.234;7.444;2022-10-16T14:26:53;16.60;99.90
31661;DHT22;18267;52.234;7.444;2022-10-16T14:29:21;16.60;99.90
31661;DHT22;18267;52.234;7.444;2022-10-16T14:32:20;16.60;99.90
31661;DHT22;18267;52.234;7.444;2022-10-16T14:34:53;16.50;99.90
31661;DHT22;18267;52.234;7.444;2022-10-16T14:37:29;16.40;99.90
31661;DHT22;18267;52.234;7.444;2022-10-16T14:39:55;16.40;99.90
31661;DHT22;18267;52.234;7.444;2022-10-16T14:42:23;16.40;99.90
31661;DHT22;18267;52.234;7.444;2022-10-16T14:44:51;16.30;99.90
31661;DHT22;18267;52.234;7.444;2022-10-16T14:47:23;16.30;99.90
31661;DHT22;18267;52.234;7.444;2022-10-16T14:49:52;16.20;99.90
31661;DHT22;18267;52.234;7.444;2022-10-16T14:52:20;16.20;99.90
31661;DHT22;18267;52.234;7.444;2022-10-16T14:54:50;16.20;99.90
31661;DHT22;18267;52.234;7.444;2022-10-16T14:57:18;16.10;99.90
31661;DHT22;18267;52.234;7.444;2022-10-16T14:59:44;16.10;99.90
31661;DHT22;18267;52.234;7.444;2022-10-16T15:02:20;16.10;99.90
31661;DHT22;18267;52.234;7.444;2022-10-16T15:04:48;16.10;99.90
31661;DHT22;18267;52.234;7.444;2022-10-16T15:07:14;16.00;99.90
31661;DHT22;18267;52.234;7.444;2022-10-16T15:09:40;16.10;99.90
31661;DHT22;18267;52.234;7.444;2022-10-16T15:12:05;16.00;99.90
31661;DHT22;18267;52.234;7.444;2022-10-16T15:14:31;16.00;99.90
31661;DHT22;18267;52.234;7.444;2022-10-16T15:16:56;16.00;99.90
31661;DHT22;18267;52.234;7.444;2022-10-16T15:19:22;16.00;99.90
31661;DHT22;18267;52.234;7.444;2022-10-16T15:21:48;16.00;99.90
31661;DHT22;18267;52.234;7.444;2022-10-16T15:24:14;15.90;99.90
31661;DHT22;18267;52.234;7.444;2022-10-16T15:26:40;15.90;99.90
31661;DHT22;18267;52.234;7.444;2022-10-16T15:29:06;15.90;99.90
31661;DHT22;18267;52.234;7.444;2022-10-16T15:31:33;15.90;99.90
31661;DHT22;18267;52.234;7.444;2022-10-16T15:33:58;15.80;99.90
31661;DHT22;18267;52.234;7.444;2022-10-16T15:36:31;15.80;99.90
31661;DHT22;18267;52.234;7.444;2022-10-16T15:38:59;15.80;99.90
31661;DHT22;18267;52.234;7.444;2022-10-16T15:41:25;15.80;99.90
31661;DHT22;18267;52.234;7.444;2022-10-16T15:43:51;15.70;99.90
31661;DHT22;18267;52.234;7.444;2022-10-16T15:46:19;15.70;99.90
31661;DHT22;18267;52.234;7.444;2022-10-16T15:48:46;15.70;99.90
31661;DHT22;18267;52.234;7.444;2022-10-16T15:51:11;15.70;99.90
31661;DHT22;18267;52.234;7.444;2022-10-16T15:53:37;15.70;99.90
31661;DHT22;18267;52.234;7.444;2022-10-16T15:56:07;15.70;99.90
31661;DHT22;18267;52.234;7.444;2022-10-16T15:58:33;15.70;99.90
31661;DHT22;18267;52.234;7.444;2022-10-16T16:01:00;15.70;99.90
31661;DHT22;18267;52.234;7.444;2022-10-16T16:03:27;15.70;99.90
31661;DHT22;18267;52.234;7.444;2022-10-16T16:05:53;15.70;99.90
31661;DHT22;18267;52.234;7.444;2022-10-16T16:08:19;15.60;99.90
31661;DHT22;18267;52.234;7.444;2022-10-16T16:10:44;15.50;99.90
31661;DHT22;18267;52.234;7.444;2022-10-16T16:13:10;15.50;99.90
31661;DHT22;18267;52.234;7.444;2022-10-16T16:15:39;15.40;99.90
31661;DHT22;18267;52.234;7.444;2022-10-16T16:18:05;15.40;99.90
31661;DHT22;18267;52.234;7.444;2022-10-16T16:20:31;15.40;99.90
31661;DHT22;18267;52.234;7.444;2022-10-16T16:22:57;15.40;99.90
31661;DHT22;18267;52.234;7.444;2022-10-16T16:25:23;15.30;99.90
31661;DHT22;18267;52.234;7.444;2022-10-16T16:27:48;15.30;99.90
31661;DHT22;18267;52.234;7.444;2022-10-16T16:30:14;15.20;99.90
31661;DHT22;18267;52.234;7.444;2022-10-16T16:32:42;15.20;99.90
31661;DHT22;18267;52.234;7.444;2022-10-16T16:35:08;15.10;99.90
31661;DHT22;18267;52.234;7.444;2022-10-16T16:37:33;15.10;99.90
31661;DHT22;18267;52.234;7.444;2022-10-16T16:39:59;15.10;99.90
31661;DHT22;18267;52.234;7.444;2022-10-16T16:42:26;15.10;99.90
31661;DHT22;18267;52.234;7.444;2022-10-16T16:44:52;15.00;99.90
31661;DHT22;18267;52.234;7.444;2022-10-16T16:47:18;15.00;99.90
31661;DHT22;18267;52.234;7.444;2022-10-16T16:49:44;14.90;99.90
31661;DHT22;18267;52.234;7.444;2022-10-16T16:52:12;14.90;99.90
31661;DHT22;18267;52.234;7.444;2022-10-16T16:54:38;14.90;99.90
31661;DHT22;18267;52.234;7.444;2022-10-16T16:57:03;14.80;99.90
31661;DHT22;18267;52.234;7.444;2022-10-16T16:59:29;14.80;99.90
31661;DHT22;18267;52.234;7.444;2022-10-16T17:01:58;14.80;99.90
31661;DHT22;18267;52.234;7.444;2022-10-16T17:04:24;14.80;99.90
31661;DHT22;18267;52.234;7.444;2022-10-16T17:06:49;14.80;99.90